sensor_id;sensor_type;location;lat;lon;timestamp;P1;durP1;ratioP1;P2;durP2;ratioP2
12171;SDS011;6149;52.418;13.668;2023-08-30T00:01:05;5.20;;;3.27;;
12171;SDS011;6149;52.418;13.668;2023-08-30T00:03:34;3.30;;;2.80;;
12171;SDS011;6149;52.418;13.668;2023-08-30T00:06:05;3.93;;;3.40;;
12171;SDS011;6149;52.418;13.668;2023-08-30T00:08:35;4.47;;;3.30;;
12171;SDS011;6149;52.418;13.668;2023-08-30T00:11:03;4.03;;;3.20;;
12171;SDS011;6149;52.418;13.668;2023-08-30T00:13:30;4.23;;;3.93;;
12171;SDS011;6149;52.418;13.668;2023-08-30T00:16:00;7.83;;;4.47;;
12171;SDS011;6149;52.418;13.668;2023-08-30T00:18:28;4.90;;;4.43;;
12171;SDS011;6149;52.418;13.668;2023-08-30T00:20:58;5.43;;;4.93;;
12171;SDS011;6149;52.418;13.668;2023-08-30T00:23:25;5.07;;;4.57;;
12171;SDS011;6149;52.418;13.668;2023-08-30T00:25:53;5.20;;;4.70;;
12171;SDS011;6149;52.418;13.668;2023-08-30T00:28:22;5.40;;;4.90;;
12171;SDS011;6149;52.418;13.668;2023-08-30T00:30:52;5.63;;;5.07;;
12171;SDS011;6149;52.418;13.668;2023-08-30T00:33:23;5.43;;;4.93;;
12171;SDS011;6149;52.418;13.668;2023-08-30T00:35:58;6.53;;;4.83;;
12171;SDS011;6149;52.418;13.668;2023-08-30T00:38:28;4.73;;;4.13;;
12171;SDS011;6149;52.418;13.668;2023-08-30T00:40:56;5.87;;;5.27;;
12171;SDS011;6149;52.418;13.668;2023-08-30T00:43:24;5.13;;;4.60;;
12171;SDS011;6149;52.418;13.668;2023-08-30T00:45:54;5.13;;;4.63;;
12171;SDS011;6149;52.418;13.668;2023-08-30T00:48:21;6.03;;;4.90;;
12171;SDS011;6149;52.418;13.668;2023-08-30T00:50:49;5.13;;;4.60;;
12171;SDS011;6149;52.418;13.668;2023-08-30T00:53:22;5.90;;;4.93;;
12171;SDS011;6149;52.418;13.668;2023-08-30T00:55:50;6.93;;;4.43;;
12171;SDS011;6149;52.418;13.668;2023-08-30T00:58:16;7.10;;;4.53;;
12171;SDS011;6149;52.418;13.668;2023-08-30T01:00:48;4.80;;;4.27;;
12171;SDS011;6149;52.418;13.668;2023-08-30T01:03:17;5.30;;;4.80;;
12171;SDS011;6149;52.418;13.668;2023-08-30T01:05:49;4.20;;;3.80;;
12171;SDS011;6149;52.418;13.668;2023-08-30T01:08:16;6.27;;;4.60;;
12171;SDS011;6149;52.418;13.668;2023-08-30T01:11:00;5.30;;;4.20;;
12171;SDS011;6149;52.418;13.668;2023-08-30T01:13:40;7.50;;;4.53;;
12171;SDS011;6149;52.418;13.668;2023-08-30T01:16:15;5.10;;;4.57;;
12171;SDS011;6149;52.418;13.668;2023-08-30T01:18:46;4.90;;;4.50;;
12171;SDS011;6149;52.418;13.668;2023-08-30T01:21:23;5.27;;;4.43;;
12171;SDS011;6149;52.418;13.668;2023-08-30T01:24:05;5.63;;;4.50;;
12171;SDS011;6149;52.418;13.668;2023-08-30T01:26:41;5.47;;;4.23;;
12171;SDS011;6149;52.418;13.668;2023-08-30T01:29:21;4.13;;;2.93;;
12171;SDS011;6149;52.418;13.668;2023-08-30T01:31:50;5.00;;;4.30;;
12171;SDS011;6149;52.418;13.668;2023-08-30T01:34:19;4.40;;;4.00;;
12171;SDS011;6149;52.418;13.668;2023-08-30T01:36:52;3.53;;;3.20;;
12171;SDS011;6149;52.418;13.668;2023-08-30T01:39:19;5.27;;;4.20;;
12171;SDS011;6149;52.418;13.668;2023-08-30T01:41:51;3.83;;;3.53;;
12171;SDS011;6149;52.418;13.668;2023-08-30T01:44:26;4.13;;;3.73;;
12171;SDS011;6149;52.418;13.668;2023-08-30T01:46:55;5.13;;;3.90;;
12171;SDS011;6149;52.418;13.668;2023-08-30T01:49:25;3.90;;;3.60;;
12171;SDS011;6149;52.418;13.668;2023-08-30T01:51:59;7.23;;;4.80;;
12171;SDS011;6149;52.418;13.668;2023-08-30T01:54:28;6.53;;;5.03;;
12171;SDS011;6149;52.418;13.668;2023-08-30T01:56:57;5.13;;;4.63;;
12171;SDS011;6149;52.418;13.668;2023-08-30T01:59:28;5.70;;;5.13;;
12171;SDS011;6149;52.418;13.668;2023-08-30T02:01:57;5.77;;;4.53;;
12171;SDS011;6149;52.418;13.668;2023-08-30T02:04:24;6.10;;;5.50;;
12171;SDS011;6149;52.418;13.668;2023-08-30T02:06:54;6.10;;;5.50;;
12171;SDS011;6149;52.418;13.668;2023-08-30T02:09:28;7.10;;;5.80;;
12171;SDS011;6149;52.418;13.668;2023-08-30T02:12:04;7.67;;;6.07;;
12171;SDS011;6149;52.418;13.668;2023-08-30T02:14:43;5.57;;;5.07;;
12171;SDS011;6149;52.418;13.668;2023-08-30T02:17:15;8.70;;;7.67;;
12171;SDS011;6149;52.418;13.668;2023-08-30T02:19:45;6.60;;;6.00;;
12171;SDS011;6149;52.418;13.668;2023-08-30T02:22:19;7.07;;;6.00;;
12171;SDS011;6149;52.418;13.668;2023-08-30T02:24:47;6.73;;;6.13;;
12171;SDS011;6149;52.418;13.668;2023-08-30T02:27:22;9.13;;;8.00;;
12171;SDS011;6149;52.418;13.668;2023-08-30T02:29:52;9.57;;;8.50;;
12171;SDS011;6149;52.418;13.668;2023-08-30T02:32:19;10.87;;;9.20;;
12171;SDS011;6149;52.418;13.668;2023-08-30T02:34:49;10.40;;;7.67;;
12171;SDS011;6149;52.418;13.668;2023-08-30T02:37:22;10.07;;;7.87;;
12171;SDS011;6149;52.418;13.668;2023-08-30T02:39:50;10.20;;;8.50;;
12171;SDS011;6149;52.418;13.668;2023-08-30T02:42:20;9.63;;;8.47;;
12171;SDS011;6149;52.418;13.668;2023-08-30T02:44:47;10.40;;;8.80;;
12171;SDS011;6149;52.418;13.668;2023-08-30T02:47:18;10.47;;;9.30;;
12171;SDS011;6149;52.418;13.668;2023-08-30T02:49:52;10.40;;;9.40;;
12171;SDS011;6149;52.418;13.668;2023-08-30T02:52:20;11.37;;;9.67;;
12171;SDS011;6149;52.418;13.668;2023-08-30T02:54:48;10.53;;;9.37;;
12171;SDS011;6149;52.418;13.668;2023-08-30T02:57:24;13.20;;;10.33;;
12171;SDS011;6149;52.418;13.668;2023-08-30T02:59:52;12.57;;;9.77;;
12171;SDS011;6149;52.418;13.668;2023-08-30T03:02:25;12.93;;;11.30;;
12171;SDS011;6149;52.418;13.668;2023-08-30T03:04:53;11.87;;;10.67;;
12171;SDS011;6149;52.418;13.668;2023-08-30T03:07:21;12.83;;;10.37;;
12171;SDS011;6149;52.418;13.668;2023-08-30T03:09:51;10.90;;;9.80;;
12171;SDS011;6149;52.418;13.668;2023-08-30T03:12:20;9.47;;;8.57;;
12171;SDS011;6149;52.418;13.668;2023-08-30T03:14:49;10.13;;;8.00;;
12171;SDS011;6149;52.418;13.668;2023-08-30T03:17:18;10.20;;;9.20;;
12171;SDS011;6149;52.418;13.668;2023-08-30T03:19:58;9.67;;;8.70;;
12171;SDS011;6149;52.418;13.668;2023-08-30T03:22:29;11.60;;;9.80;;
12171;SDS011;6149;52.418;13.668;2023-08-30T03:24:56;10.10;;;9.10;;
12171;SDS011;6149;52.418;13.668;2023-08-30T03:27:24;11.37;;;10.27;;
12171;SDS011;6149;52.418;13.668;2023-08-30T03:29:54;14.37;;;9.97;;
12171;SDS011;6149;52.418;13.668;2023-08-30T03:32:23;9.47;;;8.57;;
12171;SDS011;6149;52.418;13.668;2023-08-30T03:34:50;7.23;;;6.47;;
12171;SDS011;6149;52.418;13.668;2023-08-30T03:37:23;10.70;;;9.60;;
12171;SDS011;6149;52.418;13.668;2023-08-30T03:39:51;9.93;;;8.93;;
12171;SDS011;6149;52.418;13.668;2023-08-30T03:42:17;9.57;;;8.33;;
12171;SDS011;6149;52.418;13.668;2023-08-30T03:44:46;10.67;;;9.57;;
12171;SDS011;6149;52.418;13.668;2023-08-30T03:47:13;9.17;;;8.13;;
12171;SDS011;6149;52.418;13.668;2023-08-30T03:49:39;10.20;;;9.13;;
12171;SDS011;6149;52.418;13.668;2023-08-30T03:52:07;8.73;;;7.93;;
12171;SDS011;6149;52.418;13.668;2023-08-30T03:54:37;9.17;;;8.27;;
12171;SDS011;6149;52.418;13.668;2023-08-30T03:57:04;11.60;;;9.30;;
12171;SDS011;6149;52.418;13.668;2023-08-30T03:59:31;9.70;;;8.70;;
12171;SDS011;6149;52.418;13.668;2023-08-30T04:01:59;8.50;;;7.70;;
12171;SDS011;6149;52.418;13.668;2023-08-30T04:04:26;8.83;;;7.47;;
12171;SDS011;6149;52.418;13.668;2023-08-30T04:06:54;9.87;;;7.83;;
12171;SDS011;6149;52.418;13.668;2023-08-30T04:09:22;9.17;;;8.27;;
12171;SDS011;6149;52.418;13.668;2023-08-30T04:11:53;8.50;;;7.70;;
12171;SDS011;6149;52.418;13.668;2023-08-30T04:14:21;9.70;;;7.80;;
12171;SDS011;6149;52.418;13.668;2023-08-30T04:16:49;6.37;;;5.17;;
12171;SDS011;6149;52.418;13.668;2023-08-30T04:19:17;7.50;;;6.80;;
12171;SDS011;6149;52.418;13.668;2023-08-30T04:21:46;7.67;;;6.97;;
12171;SDS011;6149;52.418;13.668;2023-08-30T04:24:14;8.17;;;7.17;;
12171;SDS011;6149;52.418;13.668;2023-08-30T04:26:42;8.80;;;7.90;;
12171;SDS011;6149;52.418;13.668;2023-08-30T04:29:09;9.27;;;8.37;;
12171;SDS011;6149;52.418;13.668;2023-08-30T04:31:38;9.10;;;7.70;;
12171;SDS011;6149;52.418;13.668;2023-08-30T04:34:06;8.87;;;7.80;;
12171;SDS011;6149;52.418;13.668;2023-08-30T04:36:33;8.70;;;7.80;;
12171;SDS011;6149;52.418;13.668;2023-08-30T04:39:00;8.20;;;7.40;;
12171;SDS011;6149;52.418;13.668;2023-08-30T04:41:30;8.47;;;7.57;;
12171;SDS011;6149;52.418;13.668;2023-08-30T04:43:59;6.20;;;5.60;;
12171;SDS011;6149;52.418;13.668;2023-08-30T04:46:29;6.40;;;5.50;;
12171;SDS011;6149;52.418;13.668;2023-08-30T04:48:56;7.13;;;6.00;;
12171;SDS011;6149;52.418;13.668;2023-08-30T04:51:25;7.33;;;6.00;;
12171;SDS011;6149;52.418;13.668;2023-08-30T04:53:52;8.63;;;7.83;;
12171;SDS011;6149;52.418;13.668;2023-08-30T04:56:23;9.70;;;8.57;;
12171;SDS011;6149;52.418;13.668;2023-08-30T04:58:51;8.40;;;7.30;;
12171;SDS011;6149;52.418;13.668;2023-08-30T05:01:19;10.10;;;8.53;;
12171;SDS011;6149;52.418;13.668;2023-08-30T05:03:59;9.77;;;8.77;;
12171;SDS011;6149;52.418;13.668;2023-08-30T05:06:25;9.57;;;8.47;;
12171;SDS011;6149;52.418;13.668;2023-08-30T05:08:54;12.07;;;8.33;;
12171;SDS011;6149;52.418;13.668;2023-08-30T05:11:25;10.10;;;9.10;;
12171;SDS011;6149;52.418;13.668;2023-08-30T05:13:53;9.97;;;8.00;;
12171;SDS011;6149;52.418;13.668;2023-08-30T05:16:21;11.27;;;8.70;;
12171;SDS011;6149;52.418;13.668;2023-08-30T05:18:48;9.80;;;8.87;;
12171;SDS011;6149;52.418;13.668;2023-08-30T05:21:21;10.37;;;9.37;;
12171;SDS011;6149;52.418;13.668;2023-08-30T05:23:47;10.67;;;9.13;;
12171;SDS011;6149;52.418;13.668;2023-08-30T05:26:16;10.77;;;8.73;;
12171;SDS011;6149;52.418;13.668;2023-08-30T05:28:46;8.20;;;7.40;;
12171;SDS011;6149;52.418;13.668;2023-08-30T05:31:12;10.03;;;8.97;;
12171;SDS011;6149;52.418;13.668;2023-08-30T05:33:39;11.13;;;8.87;;
12171;SDS011;6149;52.418;13.668;2023-08-30T05:36:06;9.33;;;8.53;;
12171;SDS011;6149;52.418;13.668;2023-08-30T05:38:36;8.83;;;7.93;;
12171;SDS011;6149;52.418;13.668;2023-08-30T05:41:04;8.90;;;8.10;;
12171;SDS011;6149;52.418;13.668;2023-08-30T05:43:32;10.90;;;8.97;;
12171;SDS011;6149;52.418;13.668;2023-08-30T05:46:00;10.57;;;8.53;;
12171;SDS011;6149;52.418;13.668;2023-08-30T05:48:29;9.63;;;8.53;;
12171;SDS011;6149;52.418;13.668;2023-08-30T05:50:56;10.30;;;9.20;;
12171;SDS011;6149;52.418;13.668;2023-08-30T05:53:23;9.50;;;8.57;;
12171;SDS011;6149;52.418;13.668;2023-08-30T05:55:52;8.00;;;7.20;;
12171;SDS011;6149;52.418;13.668;2023-08-30T05:58:20;8.57;;;7.80;;
12171;SDS011;6149;52.418;13.668;2023-08-30T06:00:50;10.80;;;9.40;;
12171;SDS011;6149;52.418;13.668;2023-08-30T06:03:19;8.20;;;7.50;;
12171;SDS011;6149;52.418;13.668;2023-08-30T06:05:49;11.20;;;9.20;;
12171;SDS011;6149;52.418;13.668;2023-08-30T06:08:23;10.90;;;8.60;;
12171;SDS011;6149;52.418;13.668;2023-08-30T06:10:50;10.20;;;9.27;;
12171;SDS011;6149;52.418;13.668;2023-08-30T06:13:22;10.30;;;9.30;;
12171;SDS011;6149;52.418;13.668;2023-08-30T06:15:51;9.27;;;8.40;;
12171;SDS011;6149;52.418;13.668;2023-08-30T06:18:17;10.10;;;9.20;;
12171;SDS011;6149;52.418;13.668;2023-08-30T06:20:45;9.30;;;8.33;;
12171;SDS011;6149;52.418;13.668;2023-08-30T06:23:13;11.20;;;8.63;;
12171;SDS011;6149;52.418;13.668;2023-08-30T06:25:41;10.20;;;8.63;;
12171;SDS011;6149;52.418;13.668;2023-08-30T06:28:09;9.30;;;8.40;;
12171;SDS011;6149;52.418;13.668;2023-08-30T06:30:35;8.33;;;7.53;;
12171;SDS011;6149;52.418;13.668;2023-08-30T06:33:05;8.43;;;7.67;;
12171;SDS011;6149;52.418;13.668;2023-08-30T06:35:32;8.53;;;7.60;;
12171;SDS011;6149;52.418;13.668;2023-08-30T06:38:04;9.83;;;8.87;;
12171;SDS011;6149;52.418;13.668;2023-08-30T06:40:31;6.97;;;6.33;;
12171;SDS011;6149;52.418;13.668;2023-08-30T06:42:59;7.83;;;7.13;;
12171;SDS011;6149;52.418;13.668;2023-08-30T06:45:28;9.60;;;8.57;;
12171;SDS011;6149;52.418;13.668;2023-08-30T06:47:56;8.63;;;7.63;;
12171;SDS011;6149;52.418;13.668;2023-08-30T06:50:26;10.10;;;8.10;;
12171;SDS011;6149;52.418;13.668;2023-08-30T06:52:54;9.97;;;8.97;;
12171;SDS011;6149;52.418;13.668;2023-08-30T06:55:21;7.37;;;6.63;;
12171;SDS011;6149;52.418;13.668;2023-08-30T06:57:49;8.73;;;7.93;;
12171;SDS011;6149;52.418;13.668;2023-08-30T07:00:20;9.73;;;8.10;;
12171;SDS011;6149;52.418;13.668;2023-08-30T07:02:54;11.77;;;7.77;;
12171;SDS011;6149;52.418;13.668;2023-08-30T07:05:22;8.63;;;7.73;;
12171;SDS011;6149;52.418;13.668;2023-08-30T07:07:49;9.60;;;8.63;;
12171;SDS011;6149;52.418;13.668;2023-08-30T07:10:17;9.30;;;8.40;;
12171;SDS011;6149;52.418;13.668;2023-08-30T07:12:46;8.00;;;7.30;;
12171;SDS011;6149;52.418;13.668;2023-08-30T07:15:14;10.03;;;9.03;;
12171;SDS011;6149;52.418;13.668;2023-08-30T07:17:43;9.57;;;8.33;;
12171;SDS011;6149;52.418;13.668;2023-08-30T07:20:13;8.63;;;7.83;;
12171;SDS011;6149;52.418;13.668;2023-08-30T07:22:41;8.73;;;7.87;;
12171;SDS011;6149;52.418;13.668;2023-08-30T07:25:08;8.50;;;6.50;;
12171;SDS011;6149;52.418;13.668;2023-08-30T07:27:35;7.43;;;6.73;;
12171;SDS011;6149;52.418;13.668;2023-08-30T07:30:02;9.60;;;8.43;;
12171;SDS011;6149;52.418;13.668;2023-08-30T07:32:30;10.30;;;7.67;;
12171;SDS011;6149;52.418;13.668;2023-08-30T07:34:58;8.90;;;7.43;;
12171;SDS011;6149;52.418;13.668;2023-08-30T07:37:26;10.07;;;8.13;;
12171;SDS011;6149;52.418;13.668;2023-08-30T07:39:52;9.43;;;8.33;;
12171;SDS011;6149;52.418;13.668;2023-08-30T07:42:22;8.07;;;7.37;;
12171;SDS011;6149;52.418;13.668;2023-08-30T07:44:50;8.17;;;7.47;;
12171;SDS011;6149;52.418;13.668;2023-08-30T07:47:19;8.00;;;7.20;;
12171;SDS011;6149;52.418;13.668;2023-08-30T07:49:50;7.90;;;7.20;;
12171;SDS011;6149;52.418;13.668;2023-08-30T07:52:23;8.93;;;7.20;;
12171;SDS011;6149;52.418;13.668;2023-08-30T07:54:55;8.17;;;7.07;;
12171;SDS011;6149;52.418;13.668;2023-08-30T07:57:24;8.73;;;7.73;;
12171;SDS011;6149;52.418;13.668;2023-08-30T07:59:53;6.93;;;6.17;;
12171;SDS011;6149;52.418;13.668;2023-08-30T08:02:22;7.47;;;6.77;;
12171;SDS011;6149;52.418;13.668;2023-08-30T08:04:50;7.03;;;6.33;;
12171;SDS011;6149;52.418;13.668;2023-08-30T08:07:19;7.23;;;6.53;;
12171;SDS011;6149;52.418;13.668;2023-08-30T08:10:02;8.53;;;7.30;;
12171;SDS011;6149;52.418;13.668;2023-08-30T08:12:32;9.37;;;7.60;;
12171;SDS011;6149;52.418;13.668;2023-08-30T08:15:02;8.27;;;7.00;;
12171;SDS011;6149;52.418;13.668;2023-08-30T08:17:29;8.23;;;7.27;;
12171;SDS011;6149;52.418;13.668;2023-08-30T08:19:57;9.70;;;8.03;;
12171;SDS011;6149;52.418;13.668;2023-08-30T08:22:25;7.80;;;7.10;;
12171;SDS011;6149;52.418;13.668;2023-08-30T08:24:52;7.83;;;6.90;;
12171;SDS011;6149;52.418;13.668;2023-08-30T08:27:25;8.93;;;7.10;;
12171;SDS011;6149;52.418;13.668;2023-08-30T08:29:53;8.23;;;7.40;;
12171;SDS011;6149;52.418;13.668;2023-08-30T08:32:23;9.23;;;8.20;;
12171;SDS011;6149;52.418;13.668;2023-08-30T08:34:53;8.13;;;7.13;;
12171;SDS011;6149;52.418;13.668;2023-08-30T08:37:24;7.30;;;6.53;;
12171;SDS011;6149;52.418;13.668;2023-08-30T08:39:54;9.93;;;8.07;;
12171;SDS011;6149;52.418;13.668;2023-08-30T08:42:27;9.20;;;7.80;;
12171;SDS011;6149;52.418;13.668;2023-08-30T08:44:56;7.00;;;5.63;;
12171;SDS011;6149;52.418;13.668;2023-08-30T08:47:24;7.63;;;6.83;;
12171;SDS011;6149;52.418;13.668;2023-08-30T08:49:55;7.83;;;5.60;;
12171;SDS011;6149;52.418;13.668;2023-08-30T08:52:23;7.03;;;5.60;;
12171;SDS011;6149;52.418;13.668;2023-08-30T08:54:51;5.70;;;5.10;;
12171;SDS011;6149;52.418;13.668;2023-08-30T08:57:22;8.23;;;5.60;;
12171;SDS011;6149;52.418;13.668;2023-08-30T09:02:42;5.13;;;4.00;;
12171;SDS011;6149;52.418;13.668;2023-08-30T09:05:13;6.00;;;5.20;;
12171;SDS011;6149;52.418;13.668;2023-08-30T09:07:41;7.40;;;5.80;;
12171;SDS011;6149;52.418;13.668;2023-08-30T09:10:09;6.10;;;5.50;;
12171;SDS011;6149;52.418;13.668;2023-08-30T09:12:39;7.33;;;5.07;;
12171;SDS011;6149;52.418;13.668;2023-08-30T09:15:14;5.97;;;4.97;;
12171;SDS011;6149;52.418;13.668;2023-08-30T09:17:42;5.83;;;4.87;;
12171;SDS011;6149;52.418;13.668;2023-08-30T09:20:13;8.20;;;7.40;;
12171;SDS011;6149;52.418;13.668;2023-08-30T09:22:44;8.73;;;7.20;;
12171;SDS011;6149;52.418;13.668;2023-08-30T09:25:11;7.90;;;7.07;;
12171;SDS011;6149;52.418;13.668;2023-08-30T09:27:49;6.70;;;4.63;;
12171;SDS011;6149;52.418;13.668;2023-08-30T09:30:24;4.97;;;4.47;;
12171;SDS011;6149;52.418;13.668;2023-08-30T09:33:01;4.30;;;3.90;;
12171;SDS011;6149;52.418;13.668;2023-08-30T09:35:28;4.37;;;3.97;;
12171;SDS011;6149;52.418;13.668;2023-08-30T09:37:55;7.13;;;3.60;;
12171;SDS011;6149;52.418;13.668;2023-08-30T09:40:24;5.33;;;3.70;;
12171;SDS011;6149;52.418;13.668;2023-08-30T09:42:57;4.37;;;3.30;;
12171;SDS011;6149;52.418;13.668;2023-08-30T09:45:29;3.13;;;2.83;;
12171;SDS011;6149;52.418;13.668;2023-08-30T09:47:58;3.47;;;2.80;;
12171;SDS011;6149;52.418;13.668;2023-08-30T09:50:29;4.60;;;2.47;;
12171;SDS011;6149;52.418;13.668;2023-08-30T09:53:03;4.63;;;2.40;;
12171;SDS011;6149;52.418;13.668;2023-08-30T09:55:35;3.07;;;2.27;;
12171;SDS011;6149;52.418;13.668;2023-08-30T09:58:02;3.53;;;2.50;;
12171;SDS011;6149;52.418;13.668;2023-08-30T10:00:33;4.63;;;2.90;;
12171;SDS011;6149;52.418;13.668;2023-08-30T10:03:00;4.20;;;2.80;;
12171;SDS011;6149;52.418;13.668;2023-08-30T10:05:29;4.23;;;2.60;;
12171;SDS011;6149;52.418;13.668;2023-08-30T10:07:58;2.47;;;2.23;;
12171;SDS011;6149;52.418;13.668;2023-08-30T10:10:26;3.33;;;2.40;;
12171;SDS011;6149;52.418;13.668;2023-08-30T10:12:56;4.53;;;2.30;;
12171;SDS011;6149;52.418;13.668;2023-08-30T10:15:25;4.67;;;3.13;;
12171;SDS011;6149;52.418;13.668;2023-08-30T10:18:06;3.43;;;2.40;;
12171;SDS011;6149;52.418;13.668;2023-08-30T10:20:35;3.53;;;3.10;;
12171;SDS011;6149;52.418;13.668;2023-08-30T10:23:04;3.90;;;2.80;;
12171;SDS011;6149;52.418;13.668;2023-08-30T10:25:31;2.87;;;2.60;;
12171;SDS011;6149;52.418;13.668;2023-08-30T10:28:01;3.63;;;2.63;;
12171;SDS011;6149;52.418;13.668;2023-08-30T10:30:29;3.40;;;2.93;;
12171;SDS011;6149;52.418;13.668;2023-08-30T10:33:02;4.37;;;2.40;;
12171;SDS011;6149;52.418;13.668;2023-08-30T10:35:46;3.83;;;2.23;;
12171;SDS011;6149;52.418;13.668;2023-08-30T10:38:24;3.07;;;2.27;;
12171;SDS011;6149;52.418;13.668;2023-08-30T10:40:53;2.83;;;2.63;;
12171;SDS011;6149;52.418;13.668;2023-08-30T10:43:33;5.33;;;2.33;;
12171;SDS011;6149;52.418;13.668;2023-08-30T10:46:03;5.70;;;2.00;;
12171;SDS011;6149;52.418;13.668;2023-08-30T10:48:37;2.97;;;2.13;;
12171;SDS011;6149;52.418;13.668;2023-08-30T10:51:19;3.57;;;1.87;;
12171;SDS011;6149;52.418;13.668;2023-08-30T10:53:58;1.90;;;1.80;;
12171;SDS011;6149;52.418;13.668;2023-08-30T10:56:28;2.60;;;1.77;;
12171;SDS011;6149;52.418;13.668;2023-08-30T10:58:57;3.63;;;2.10;;
12171;SDS011;6149;52.418;13.668;2023-08-30T11:01:24;2.13;;;1.70;;
12171;SDS011;6149;52.418;13.668;2023-08-30T11:04:08;2.10;;;1.50;;
12171;SDS011;6149;52.418;13.668;2023-08-30T11:06:37;1.50;;;1.40;;
12171;SDS011;6149;52.418;13.668;2023-08-30T11:09:04;2.07;;;1.53;;
12171;SDS011;6149;52.418;13.668;2023-08-30T11:11:31;2.97;;;1.70;;
12171;SDS011;6149;52.418;13.668;2023-08-30T11:14:03;1.50;;;1.40;;
12171;SDS011;6149;52.418;13.668;2023-08-30T11:16:30;2.57;;;1.53;;
12171;SDS011;6149;52.418;13.668;2023-08-30T11:19:05;2.13;;;1.80;;
12171;SDS011;6149;52.418;13.668;2023-08-30T11:21:34;1.90;;;1.70;;
12171;SDS011;6149;52.418;13.668;2023-08-30T11:24:05;2.50;;;1.80;;
12171;SDS011;6149;52.418;13.668;2023-08-30T11:26:33;1.47;;;1.30;;
12171;SDS011;6149;52.418;13.668;2023-08-30T11:29:04;3.20;;;1.33;;
12171;SDS011;6149;52.418;13.668;2023-08-30T11:31:32;2.33;;;1.57;;
12171;SDS011;6149;52.418;13.668;2023-08-30T11:34:00;1.87;;;1.20;;
12171;SDS011;6149;52.418;13.668;2023-08-30T11:36:31;2.23;;;1.27;;
12171;SDS011;6149;52.418;13.668;2023-08-30T11:39:03;2.17;;;1.60;;
12171;SDS011;6149;52.418;13.668;2023-08-30T11:41:30;3.07;;;1.60;;
12171;SDS011;6149;52.418;13.668;2023-08-30T11:43:59;3.77;;;1.37;;
12171;SDS011;6149;52.418;13.668;2023-08-30T11:46:28;2.47;;;1.30;;
12171;SDS011;6149;52.418;13.668;2023-08-30T11:48:56;2.50;;;1.43;;
12171;SDS011;6149;52.418;13.668;2023-08-30T11:51:29;4.27;;;1.50;;
12171;SDS011;6149;52.418;13.668;2023-08-30T11:53:58;1.90;;;1.30;;
12171;SDS011;6149;52.418;13.668;2023-08-30T11:56:28;1.60;;;1.40;;
12171;SDS011;6149;52.418;13.668;2023-08-30T11:58:56;2.13;;;1.53;;
12171;SDS011;6149;52.418;13.668;2023-08-30T12:01:25;2.07;;;1.50;;
12171;SDS011;6149;52.418;13.668;2023-08-30T12:03:55;2.27;;;1.57;;
12171;SDS011;6149;52.418;13.668;2023-08-30T12:06:24;2.67;;;1.50;;
12171;SDS011;6149;52.418;13.668;2023-08-30T12:08:58;2.20;;;1.50;;
12171;SDS011;6149;52.418;13.668;2023-08-30T12:11:31;1.40;;;1.20;;
12171;SDS011;6149;52.418;13.668;2023-08-30T12:14:01;2.57;;;1.43;;
12171;SDS011;6149;52.418;13.668;2023-08-30T12:16:28;3.23;;;1.47;;
12171;SDS011;6149;52.418;13.668;2023-08-30T12:19:06;3.20;;;1.60;;
12171;SDS011;6149;52.418;13.668;2023-08-30T12:21:41;3.17;;;2.00;;
12171;SDS011;6149;52.418;13.668;2023-08-30T12:24:11;2.77;;;1.80;;
12171;SDS011;6149;52.418;13.668;2023-08-30T12:26:40;4.30;;;2.17;;
12171;SDS011;6149;52.418;13.668;2023-08-30T12:29:09;5.57;;;1.60;;
12171;SDS011;6149;52.418;13.668;2023-08-30T12:31:35;3.20;;;1.70;;
12171;SDS011;6149;52.418;13.668;2023-08-30T12:34:02;3.37;;;1.30;;
12171;SDS011;6149;52.418;13.668;2023-08-30T12:36:29;1.40;;;1.30;;
12171;SDS011;6149;52.418;13.668;2023-08-30T12:38:58;2.47;;;1.60;;
12171;SDS011;6149;52.418;13.668;2023-08-30T12:41:30;2.27;;;1.60;;
12171;SDS011;6149;52.418;13.668;2023-08-30T12:44:00;1.93;;;1.40;;
12171;SDS011;6149;52.418;13.668;2023-08-30T12:46:29;1.50;;;1.40;;
12171;SDS011;6149;52.418;13.668;2023-08-30T12:48:57;2.53;;;1.30;;
12171;SDS011;6149;52.418;13.668;2023-08-30T12:51:23;3.97;;;1.63;;
12171;SDS011;6149;52.418;13.668;2023-08-30T12:53:51;2.03;;;1.43;;
12171;SDS011;6149;52.418;13.668;2023-08-30T12:56:20;2.40;;;1.70;;
12171;SDS011;6149;52.418;13.668;2023-08-30T12:58:52;1.63;;;1.40;;
12171;SDS011;6149;52.418;13.668;2023-08-30T13:01:24;3.40;;;1.40;;
12171;SDS011;6149;52.418;13.668;2023-08-30T13:03:54;2.30;;;1.30;;
12171;SDS011;6149;52.418;13.668;2023-08-30T13:06:23;2.17;;;1.80;;
12171;SDS011;6149;52.418;13.668;2023-08-30T13:08:51;2.33;;;1.23;;
12171;SDS011;6149;52.418;13.668;2023-08-30T13:11:20;2.10;;;1.30;;
12171;SDS011;6149;52.418;13.668;2023-08-30T13:14:05;3.13;;;1.53;;
12171;SDS011;6149;52.418;13.668;2023-08-30T13:16:34;2.33;;;1.60;;
12171;SDS011;6149;52.418;13.668;2023-08-30T13:19:01;4.30;;;1.40;;
12171;SDS011;6149;52.418;13.668;2023-08-30T13:21:29;3.67;;;1.47;;
12171;SDS011;6149;52.418;13.668;2023-08-30T13:23:57;2.23;;;1.37;;
12171;SDS011;6149;52.418;13.668;2023-08-30T13:26:24;2.17;;;1.57;;
12171;SDS011;6149;52.418;13.668;2023-08-30T13:28:55;2.90;;;1.70;;
12171;SDS011;6149;52.418;13.668;2023-08-30T13:31:24;3.47;;;1.83;;
12171;SDS011;6149;52.418;13.668;2023-08-30T13:33:52;1.87;;;1.53;;
12171;SDS011;6149;52.418;13.668;2023-08-30T13:36:20;1.80;;;1.60;;
12171;SDS011;6149;52.418;13.668;2023-08-30T13:38:51;3.03;;;1.50;;
12171;SDS011;6149;52.418;13.668;2023-08-30T13:41:21;2.90;;;1.50;;
12171;SDS011;6149;52.418;13.668;2023-08-30T13:43:51;1.40;;;1.30;;
12171;SDS011;6149;52.418;13.668;2023-08-30T13:46:19;1.40;;;1.10;;
12171;SDS011;6149;52.418;13.668;2023-08-30T13:48:48;1.50;;;1.40;;
12171;SDS011;6149;52.418;13.668;2023-08-30T13:51:21;1.80;;;1.70;;
12171;SDS011;6149;52.418;13.668;2023-08-30T13:53:54;2.70;;;1.57;;
12171;SDS011;6149;52.418;13.668;2023-08-30T13:56:25;1.83;;;1.60;;
12171;SDS011;6149;52.418;13.668;2023-08-30T13:58:55;2.30;;;1.83;;
12171;SDS011;6149;52.418;13.668;2023-08-30T14:01:27;2.30;;;1.87;;
12171;SDS011;6149;52.418;13.668;2023-08-30T14:03:54;2.50;;;1.60;;
12171;SDS011;6149;52.418;13.668;2023-08-30T14:06:21;2.67;;;1.73;;
12171;SDS011;6149;52.418;13.668;2023-08-30T14:08:51;2.63;;;1.50;;
12171;SDS011;6149;52.418;13.668;2023-08-30T14:11:21;3.73;;;1.70;;
12171;SDS011;6149;52.418;13.668;2023-08-30T14:13:49;2.60;;;2.03;;
12171;SDS011;6149;52.418;13.668;2023-08-30T14:16:17;1.90;;;1.80;;
12171;SDS011;6149;52.418;13.668;2023-08-30T14:18:46;2.00;;;1.60;;
12171;SDS011;6149;52.418;13.668;2023-08-30T14:21:14;3.90;;;1.67;;
12171;SDS011;6149;52.418;13.668;2023-08-30T14:23:40;2.23;;;1.50;;
12171;SDS011;6149;52.418;13.668;2023-08-30T14:26:07;2.40;;;1.90;;
12171;SDS011;6149;52.418;13.668;2023-08-30T14:28:36;2.50;;;1.97;;
12171;SDS011;6149;52.418;13.668;2023-08-30T14:31:06;1.93;;;1.73;;
12171;SDS011;6149;52.418;13.668;2023-08-30T14:33:33;3.53;;;1.97;;
12171;SDS011;6149;52.418;13.668;2023-08-30T14:36:07;1.93;;;1.60;;
12171;SDS011;6149;52.418;13.668;2023-08-30T14:38:35;1.73;;;1.50;;
12171;SDS011;6149;52.418;13.668;2023-08-30T14:41:03;1.97;;;1.47;;
12171;SDS011;6149;52.418;13.668;2023-08-30T14:43:32;2.60;;;1.50;;
12171;SDS011;6149;52.418;13.668;2023-08-30T14:46:00;3.60;;;1.80;;
12171;SDS011;6149;52.418;13.668;2023-08-30T14:48:30;2.30;;;1.70;;
12171;SDS011;6149;52.418;13.668;2023-08-30T14:50:57;2.83;;;1.50;;
12171;SDS011;6149;52.418;13.668;2023-08-30T14:53:28;2.17;;;1.50;;
12171;SDS011;6149;52.418;13.668;2023-08-30T14:55:56;2.60;;;1.77;;
12171;SDS011;6149;52.418;13.668;2023-08-30T14:58:24;2.60;;;1.90;;
12171;SDS011;6149;52.418;13.668;2023-08-30T15:00:54;2.53;;;1.70;;
12171;SDS011;6149;52.418;13.668;2023-08-30T15:03:25;2.80;;;1.80;;